Flight Track Log - Related Links

Times and Time Zones

All times are in EDT time to prevent confusion due to time zone crossing. See the UAL1004 flight status page for this flight to view local times or setup timezone preferences in your user account.

Time Position Orientation Groundspeed Altitude Reporting Facility
EDT Latitude Longitude Course Direction KTS MPH feet Rate Location/Type
Mon 09:12:53 PM 33.9289 -118.4508 265° West 196 226 1,500  Level Los Angeles Center
Mon 09:13:55 PM 33.8944 -118.5125 236° Southwest 226 260 3,000 1,887 Climbing Los Angeles Center
Mon 09:14:57 PM 33.8494 -118.5881 234° Southwest 256 295 5,400 1,935 Climbing Los Angeles Center
Mon 09:15:00 PM 33.8895 -118.8753 253° West  Level FlightAware Approximate
Mon 09:15:59 PM 33.8083 -118.6564 234° Southwest 273 314 7,000  Level Los Angeles Center
Mon 09:16:00 PM 33.8720 -119.0363 264° West  Level FlightAware Approximate
Mon 09:17:00 PM 33.8615 -119.1980 259° West  Level FlightAware Approximate
Mon 09:17:01 PM 33.7825 -118.7503 252° West 300 345 9,200  Level Los Angeles Center
Mon 09:18:00 PM 33.8429 -119.3589 265° West  Level FlightAware Approximate
Mon 09:18:02 PM 33.7072 -118.8375 224° Southwest 316 364 11,000  Level Los Angeles Center
Mon 09:19:04 PM 33.6358 -118.9261 226° Southwest 375 432 12,000 1,161 Climbing Los Angeles Center
Mon 09:20:06 PM 33.5569 -119.0225 226° Southwest 407 468 13,400 1,500 Climbing Los Angeles Center
Mon 09:21:08 PM 33.4767 -119.1222 226° Southwest 416 479 15,100 1,839 Climbing Los Angeles Center
Mon 09:22:10 PM 33.3889 -119.2275 225° Southwest 427 491 17,200 1,854 Climbing Los Angeles Center
Mon 09:23:11 PM 33.3069 -119.3278 226° Southwest 436 502 18,900 1,659 Climbing Los Angeles Center
Mon 09:24:13 PM 33.2008 -119.4556 225° Southwest 451 519 20,600 1,355 Climbing Los Angeles Center
Mon 09:25:15 PM 33.1444 -119.5581 237° Southwest 464 534 21,700 1,258 Climbing Los Angeles Center
Mon 09:26:17 PM 33.0678 -119.7219 241° Southwest 471 542 23,200 1,191 Climbing Los Angeles Center
Mon 09:27:31 PM 33.0006 -119.8617 240° Southwest 484 557 24,400 1,147 Climbing Los Angeles Center
Mon 09:28:33 PM 32.9156 -120.0372 240° Southwest 488 562 25,800 1,113 Climbing Los Angeles Center
Mon 09:29:35 PM 32.8453 -120.1789 239° Southwest 494 568 26,700 927 Climbing Los Angeles Center
Mon 09:30:36 PM 32.7756 -120.3231 240° Southwest 500 575 27,700 1,220 Climbing Los Angeles Center
Mon 09:31:38 PM 32.7058 -120.4656 240° Southwest 500 575 29,200 1,258 Climbing Los Angeles Center
Mon 09:32:40 PM 32.6367 -120.6064 240° Southwest 495 570 30,300 1,065 Climbing Los Angeles Center
Mon 09:33:42 PM 32.5539 -120.7714 239° Southwest 488 562 31,400 1,113 Climbing Los Angeles Center
Mon 09:34:44 PM 32.4844 -120.9092 239° Southwest 487 560 32,600 1,024 Climbing Los Angeles Center
Mon 09:35:45 PM 32.4172 -121.0486 240° Southwest 487 560 33,500 683 Climbing Los Angeles Center
Mon 09:36:47 PM 32.3486 -121.1831 239° Southwest 482 555 34,000 242 Climbing Los Angeles Center
Mon 09:37:49 PM 32.2811 -121.3186 240° Southwest 481 554 34,000  Level Los Angeles Center
Mon 09:38:51 PM 32.2133 -121.4547 240° Southwest 481 554 34,000 -49 Level Los Angeles Center
Mon 09:39:52 PM 32.1453 -121.5900 239° Southwest 480 552 33,900  Descending Los Angeles Center
Mon 09:41:00 PM 32.0753 -121.7387 241° Southwest  Level FlightAware Approximate
Mon 09:48:00 PM 31.6143 -122.6355 238° Southwest  Level FlightAware Approximate
Mon 09:49:00 PM 31.5464 -122.7616 238° Southwest  Level FlightAware Approximate
Mon 09:50:00 PM 31.4786 -122.8878 238° Southwest  Level FlightAware Approximate
Mon 09:51:00 PM 31.4110 -123.0140 238° Southwest  Level FlightAware Approximate
Mon 09:52:00 PM 31.3433 -123.1400 238° Southwest  Level FlightAware Approximate
Mon 09:53:00 PM 31.2754 -123.2658 238° Southwest  Level FlightAware Approximate
Mon 09:54:00 PM 31.2074 -123.3915 238° Southwest  Level FlightAware Approximate
Mon 09:55:00 PM 31.1331 -123.5115 229° Southwest  Level FlightAware Approximate
Mon 09:56:00 PM 31.0915 -123.6491 256° West  Level FlightAware Approximate
Mon 09:56:04 PM 31.1333 -123.5500 256° West 484 557 34,000  Level Oakland Oceanic (ODAPS)
Mon 09:57:00 PM 31.0602 -123.7930 256° West  Level FlightAware Approximate
Mon 09:58:00 PM 31.0286 -123.9367 256° West  Level FlightAware Approximate
Mon 09:59:00 PM 30.9969 -124.0804 256° West  Level FlightAware Approximate
Mon 10:00:00 PM 30.9651 -124.2239 256° West  Level FlightAware Approximate
Mon 10:01:00 PM 30.9331 -124.3674 255° West  Level FlightAware Approximate
Mon 10:02:00 PM 30.8635 -124.7635 255° West 484 557 34,000  Level FlightAware Transoceanic
Mon 10:03:00 PM 30.8290 -124.9147 255° West 484 557 34,000  Level FlightAware Transoceanic
Mon 10:04:00 PM 30.7943 -125.0658 255° West 484 557 34,000  Level FlightAware Transoceanic
Mon 10:05:00 PM 30.7594 -125.2167 255° West 484 557 34,000  Level FlightAware Transoceanic
Mon 10:06:00 PM 30.7243 -125.3676 255° West 484 557 34,000  Level FlightAware Transoceanic
Mon 10:07:00 PM 30.6891 -125.5183 255° West 484 557 34,000  Level FlightAware Transoceanic
Mon 10:08:00 PM 30.6537 -125.6690 255° West 484 557 34,000  Level FlightAware Transoceanic
Mon 10:09:00 PM 30.6181 -125.8195 255° West 484 557 34,000  Level FlightAware Transoceanic
Mon 10:10:00 PM 30.5824 -125.9700 255° West 484 557 34,000  Level FlightAware Transoceanic
Mon 10:11:00 PM 30.5465 -126.1203 254° West 484 557 34,000  Level FlightAware Transoceanic
Mon 10:12:00 PM 30.5104 -126.2705 254° West 484 557 34,000  Level FlightAware Transoceanic
Mon 10:13:00 PM 30.4741 -126.4206 254° West 484 557 34,000  Level FlightAware Transoceanic
Mon 10:14:00 PM 30.4377 -126.5706 254° West 484 557 34,000  Level FlightAware Transoceanic
Mon 10:15:00 PM 30.4011 -126.7204 254° West 484 557 34,000  Level FlightAware Transoceanic
Mon 10:16:00 PM 30.3643 -126.8702 254° West 484 557 34,000  Level FlightAware Transoceanic
Mon 10:17:00 PM 30.3274 -127.0198 254° West 484 557 34,000  Level FlightAware Transoceanic
Mon 10:18:00 PM 30.2902 -127.1694 254° West 484 557 34,000  Level FlightAware Transoceanic
Mon 10:19:00 PM 30.2529 -127.3188 254° West 484 557 34,000  Level FlightAware Transoceanic
Mon 10:20:00 PM 30.2155 -127.4681 254° West 484 557 34,000  Level FlightAware Transoceanic
Mon 10:21:00 PM 30.1779 -127.6173 254° West 484 557 34,000  Level FlightAware Transoceanic
Mon 10:22:00 PM 30.1401 -127.7663 254° West 484 557 34,000  Level FlightAware Transoceanic
Mon 10:23:00 PM 30.1021 -127.9153 254° West 484 557 34,000  Level FlightAware Transoceanic
Mon 10:24:00 PM 30.0640 -128.0642 253° West 484 557 34,000  Level FlightAware Transoceanic
Mon 10:25:00 PM 30.0257 -128.2129 253° West 484 557 34,000  Level FlightAware Transoceanic
Mon 10:26:00 PM 29.9872 -128.3615 253° West 484 557 34,000  Level FlightAware Transoceanic
Mon 10:27:00 PM 29.9486 -128.5100 253° West 484 557 34,000  Level FlightAware Transoceanic
Mon 10:28:00 PM 29.9098 -128.6584 253° West 484 557 34,000  Level FlightAware Transoceanic
Mon 10:29:00 PM 29.8708 -128.8067 253° West 484 557 34,000  Level FlightAware Transoceanic
Mon 10:30:00 PM 29.8317 -128.9548 253° West 484 557 34,000  Level FlightAware Transoceanic
Mon 10:31:00 PM 29.7924 -129.1028 253° West 484 557 34,000  Level FlightAware Transoceanic
Mon 10:32:00 PM 29.7529 -129.2508 253° West 484 557 34,000  Level FlightAware Transoceanic
Mon 10:33:00 PM 29.7133 -129.3986 253° West 484 557 34,000  Level FlightAware Transoceanic
Mon 10:34:00 PM 29.6735 -129.5463 253° West 484 557 34,000  Level FlightAware Transoceanic
Mon 10:35:00 PM 29.6335 -129.6938 253° West 484 557 34,000  Level FlightAware Transoceanic
Mon 10:36:00 PM 29.5934 -129.8413 253° West 484 557 34,000  Level FlightAware Transoceanic
Mon 10:37:00 PM 29.5532 -129.9886 253° West 484 557 34,000  Level FlightAware Transoceanic
Mon 10:38:00 PM 29.5127 -130.1358 252° West 484 557 34,000  Level FlightAware Transoceanic
Mon 10:39:00 PM 29.4721 -130.2829 252° West 484 557 34,000  Level FlightAware Transoceanic
Mon 10:40:00 PM 29.4313 -130.4299 252° West 484 557 34,000  Level FlightAware Transoceanic
Mon 10:41:00 PM 29.3904 -130.5768 252° West 484 557 34,000  Level FlightAware Transoceanic
Mon 10:42:00 PM 29.3493 -130.7235 252° West 484 557 34,000  Level FlightAware Transoceanic
Mon 10:43:00 PM 29.3081 -130.8702 252° West 484 557 34,000  Level FlightAware Transoceanic
Mon 10:44:00 PM 29.2667 -131.0167 252° West 484 557 34,000  Level FlightAware Transoceanic
Mon 10:45:00 PM 29.2282 -131.1524 252° West 484 557 34,000  Level FlightAware Transoceanic
Mon 10:46:00 PM 29.1895 -131.2881 252° West 484 557 34,000  Level FlightAware Transoceanic
Mon 10:47:00 PM 29.1508 -131.4237 252° West 484 557 34,000  Level FlightAware Transoceanic
Mon 10:48:00 PM 29.1119 -131.5591 252° West 484 557 34,000  Level FlightAware Transoceanic
Mon 10:49:00 PM 29.0728 -131.6945 252° West 484 557 34,000  Level FlightAware Transoceanic
Mon 10:50:00 PM 29.0337 -131.8298 252° West 484 557 34,000 1,101 Level FlightAware Transoceanic
Mon 10:50:49 PM 29.2667 -131.0167 252° West 449 517 36,000  Climbing Oakland Oceanic (ODAPS)
Mon 10:51:00 PM 28.9944 -131.9649 252° West 484 557 34,000 -1,690 Descending FlightAware Transoceanic
Mon 10:52:00 PM 28.9549 -132.1000 252° West 484 557 34,000  Level FlightAware Transoceanic
Mon 10:53:00 PM 28.9153 -132.2349 251° West 484 557 34,000  Level FlightAware Transoceanic
Mon 10:54:00 PM 28.8756 -132.3698 251° West 484 557 34,000  Level FlightAware Transoceanic
Mon 10:55:00 PM 28.8358 -132.5045 251° West 484 557 34,000  Level FlightAware Transoceanic
Mon 10:56:00 PM 28.7958 -132.6392 251° West 484 557 34,000 1,000 Level FlightAware Transoceanic
Mon 10:57:00 PM 28.8358 -132.5045 251° West 449 517 36,000 1,000 Climbing FlightAware Transoceanic
Mon 10:58:00 PM 28.7958 -132.6392 251° West 449 517 36,000  Level FlightAware Transoceanic
Mon 10:59:00 PM 28.7557 -132.7737 251° West 449 517 36,000  Level FlightAware Transoceanic
Mon 11:00:00 PM 28.7154 -132.9082 251° West 449 517 36,000  Level FlightAware Transoceanic
Mon 11:01:00 PM 28.6750 -133.0425 251° West 449 517 36,000  Level FlightAware Transoceanic
Mon 11:02:00 PM 28.6345 -133.1767 251° West 449 517 36,000  Level FlightAware Transoceanic
Mon 11:03:00 PM 28.5939 -133.3109 251° West 449 517 36,000  Level FlightAware Transoceanic
Mon 11:04:00 PM 28.5531 -133.4449 251° West 449 517 36,000  Level FlightAware Transoceanic
Mon 11:05:00 PM 28.5122 -133.5788 251° West 449 517 36,000  Level FlightAware Transoceanic
Mon 11:06:00 PM 28.4711 -133.7126 251° West 449 517 36,000  Level FlightAware Transoceanic
Mon 11:07:00 PM 28.4300 -133.8463 251° West 449 517 36,000  Level FlightAware Transoceanic
Mon 11:08:00 PM 28.3887 -133.9799 251° West 449 517 36,000  Level FlightAware Transoceanic
Mon 11:09:00 PM 28.3472 -134.1134 251° West 449 517 36,000  Level FlightAware Transoceanic
Mon 11:10:00 PM 28.3057 -134.2468 250° West 449 517 36,000  Level FlightAware Transoceanic
Mon 11:11:00 PM 28.2640 -134.3801 250° West 449 517 36,000  Level FlightAware Transoceanic
Mon 11:12:00 PM 28.2222 -134.5133 250° West 449 517 36,000  Level FlightAware Transoceanic
Mon 11:13:00 PM 28.1802 -134.6464 250° West 449 517 36,000  Level FlightAware Transoceanic
Mon 11:14:00 PM 28.1381 -134.7793 250° West 449 517 36,000  Level FlightAware Transoceanic
Mon 11:15:00 PM 28.0959 -134.9122 250° West 449 517 36,000  Level FlightAware Transoceanic
Mon 11:16:00 PM 28.0536 -135.0450 250° West 449 517 36,000  Level FlightAware Transoceanic
Mon 11:17:00 PM 28.0111 -135.1777 250° West 449 517 36,000  Level FlightAware Transoceanic
Mon 11:18:00 PM 27.9685 -135.3102 250° West 449 517 36,000  Level FlightAware Transoceanic
Mon 11:19:00 PM 27.9258 -135.4427 250° West 449 517 36,000  Level FlightAware Transoceanic
Mon 11:20:00 PM 27.8830 -135.5750 250° West 449 517 36,000  Level FlightAware Transoceanic
Mon 11:21:00 PM 27.8400 -135.7073 250° West 449 517 36,000  Level FlightAware Transoceanic
Mon 11:22:00 PM 27.7969 -135.8394 250° West 449 517 36,000  Level FlightAware Transoceanic
Mon 11:23:00 PM 27.7537 -135.9715 250° West 449 517 36,000  Level FlightAware Transoceanic
Mon 11:24:00 PM 27.7103 -136.1034 250° West 449 517 36,000  Level FlightAware Transoceanic
Mon 11:25:00 PM 27.6668 -136.2352 250° West 449 517 36,000  Level FlightAware Transoceanic
Mon 11:26:00 PM 27.6232 -136.3669 249° West 449 517 36,000  Level FlightAware Transoceanic
Mon 11:27:00 PM 27.5795 -136.4986 249° West 449 517 36,000  Level FlightAware Transoceanic
Mon 11:28:00 PM 27.5357 -136.6301 249° West 449 517 36,000  Level FlightAware Transoceanic
Mon 11:29:00 PM 27.4917 -136.7615 249° West 449 517 36,000  Level FlightAware Transoceanic
Mon 11:30:00 PM 27.4476 -136.8928 249° West 449 517 36,000  Level FlightAware Transoceanic
Mon 11:31:00 PM 27.4034 -137.0240 249° West 449 517 36,000  Level FlightAware Transoceanic
Mon 11:32:00 PM 27.3591 -137.1550 249° West 449 517 36,000  Level FlightAware Transoceanic
Mon 11:33:00 PM 27.3146 -137.2860 249° West 449 517 36,000  Level FlightAware Transoceanic
Mon 11:34:00 PM 27.2700 -137.4169 249° West 449 517 36,000  Level FlightAware Transoceanic
Mon 11:35:00 PM 27.2253 -137.5477 249° West 449 517 36,000  Level FlightAware Transoceanic
Mon 11:36:00 PM 27.1805 -137.6784 249° West 449 517 36,000  Level FlightAware Transoceanic
Mon 11:37:00 PM 27.1356 -137.8089 249° West 449 517 36,000  Level FlightAware Transoceanic
Mon 11:38:00 PM 27.0905 -137.9394 249° West 449 517 36,000  Level FlightAware Transoceanic
Mon 11:39:00 PM 27.0453 -138.0697 249° West 449 517 36,000  Level FlightAware Transoceanic
Mon 11:40:00 PM 27.0000 -138.2000 249° West 449 517 36,000  Level FlightAware Transoceanic
Mon 11:41:00 PM 26.9524 -138.3358 249° West 449 517 36,000  Level FlightAware Transoceanic
Mon 11:42:00 PM 26.9048 -138.4716 248° West 449 517 36,000  Level FlightAware Transoceanic
Mon 11:43:00 PM 26.8569 -138.6072 248° West 449 517 36,000  Level FlightAware Transoceanic
Mon 11:44:00 PM 26.8090 -138.7427 248° West 449 517 36,000  Level FlightAware Transoceanic
Mon 11:45:00 PM 26.7609 -138.8781 248° West 449 517 36,000  Level FlightAware Transoceanic
Mon 11:46:00 PM 26.7127 -139.0134 248° West 449 517 36,000  Level FlightAware Transoceanic
Mon 11:46:52 PM 27.0000 -138.2000 249° West 468 539 36,000  Level Oakland Oceanic (ODAPS)
Mon 11:47:00 PM 26.6644 -139.1486 248° West 449 517 36,000  Level FlightAware Transoceanic
Mon 11:48:00 PM 26.6159 -139.2836 248° West 449 517 36,000  Level FlightAware Transoceanic
Mon 11:49:00 PM 26.5673 -139.4186 248° West 449 517 36,000  Level FlightAware Transoceanic
Mon 11:50:00 PM 26.5186 -139.5534 248° West 449 517 36,000  Level FlightAware Transoceanic
Mon 11:51:00 PM 26.4698 -139.6881 248° West 449 517 36,000  Level FlightAware Transoceanic
Mon 11:52:00 PM 26.4208 -139.8227 248° West 449 517 36,000  Level FlightAware Transoceanic
Mon 11:53:00 PM 26.4698 -139.6881 248° West 468 539 36,000  Level FlightAware Transoceanic
Mon 11:54:00 PM 26.4208 -139.8227 248° West 468 539 36,000  Level FlightAware Transoceanic
Mon 11:55:00 PM 26.3717 -139.9572 248° West 468 539 36,000  Level FlightAware Transoceanic
Mon 11:56:00 PM 26.3225 -140.0915 248° West 468 539 36,000  Level FlightAware Transoceanic
Mon 11:57:00 PM 26.2732 -140.2258 248° West 468 539 36,000  Level FlightAware Transoceanic
Mon 11:58:00 PM 26.2237 -140.3599 248° West 468 539 36,000  Level FlightAware Transoceanic
Mon 11:59:00 PM 26.1741 -140.4939 248° West 468 539 36,000  Level FlightAware Transoceanic
Tue 12:00:00 AM 26.1244 -140.6279 248° West 468 539 36,000  Level FlightAware Transoceanic
Tue 12:01:00 AM 26.0746 -140.7616 247° West 468 539 36,000  Level FlightAware Transoceanic
Tue 12:02:00 AM 26.0246 -140.8953 247° West 468 539 36,000  Level FlightAware Transoceanic
Tue 12:03:00 AM 25.9745 -141.0289 247° West 468 539 36,000  Level FlightAware Transoceanic
Tue 12:04:00 AM 25.9243 -141.1623 247° West 468 539 36,000  Level FlightAware Transoceanic
Tue 12:05:00 AM 25.8740 -141.2957 247° West 468 539 36,000  Level FlightAware Transoceanic
Tue 12:06:00 AM 25.8235 -141.4289 247° West 468 539 36,000  Level FlightAware Transoceanic
Tue 12:07:00 AM 25.7729 -141.5620 247° West 468 539 36,000  Level FlightAware Transoceanic
Tue 12:08:00 AM 25.7222 -141.6950 247° West 468 539 36,000  Level FlightAware Transoceanic
Tue 12:09:00 AM 25.6714 -141.8279 247° West 468 539 36,000  Level FlightAware Transoceanic
Tue 12:10:00 AM 25.6205 -141.9607 247° West 468 539 36,000  Level FlightAware Transoceanic
Tue 12:11:00 AM 25.5694 -142.0933 247° West 468 539 36,000  Level FlightAware Transoceanic
Tue 12:12:00 AM 25.5183 -142.2259 247° West 468 539 36,000  Level FlightAware Transoceanic
Tue 12:13:00 AM 25.4670 -142.3583 247° West 468 539 36,000  Level FlightAware Transoceanic
Tue 12:14:00 AM 25.4156 -142.4906 247° West 468 539 36,000  Level FlightAware Transoceanic
Tue 12:15:00 AM 25.3640 -142.6228 247° West 468 539 36,000  Level FlightAware Transoceanic
Tue 12:16:00 AM 25.3124 -142.7549 247° West 468 539 36,000  Level FlightAware Transoceanic
Tue 12:17:00 AM 25.2606 -142.8869 247° West 468 539 36,000  Level FlightAware Transoceanic
Tue 12:18:00 AM 25.2087 -143.0188 246° West 468 539 36,000  Level FlightAware Transoceanic
Tue 12:19:00 AM 25.1567 -143.1505 246° West 468 539 36,000  Level FlightAware Transoceanic
Tue 12:20:00 AM 25.1046 -143.2822 246° West 468 539 36,000  Level FlightAware Transoceanic
Tue 12:21:00 AM 25.0524 -143.4137 246° West 468 539 36,000  Level FlightAware Transoceanic
Tue 12:22:00 AM 25.0000 -143.5451 246° West 468 539 36,000  Level FlightAware Transoceanic
Tue 12:23:00 AM 24.9476 -143.6764 246° West 468 539 36,000  Level FlightAware Transoceanic
Tue 12:24:00 AM 24.8950 -143.8076 246° West 468 539 36,000  Level FlightAware Transoceanic
Tue 12:25:00 AM 24.8423 -143.9387 246° West 468 539 36,000  Level FlightAware Transoceanic
Tue 12:26:00 AM 24.7895 -144.0697 246° West 468 539 36,000  Level FlightAware Transoceanic
Tue 12:27:00 AM 24.7366 -144.2005 246° West 468 539 36,000  Level FlightAware Transoceanic
Tue 12:28:00 AM 24.6835 -144.3313 246° West 468 539 36,000  Level FlightAware Transoceanic
Tue 12:29:00 AM 24.6304 -144.4619 246° West 468 539 36,000  Level FlightAware Transoceanic
Tue 12:30:00 AM 24.5771 -144.5924 246° West 468 539 36,000  Level FlightAware Transoceanic
Tue 12:31:00 AM 24.5238 -144.7228 246° West 468 539 36,000  Level FlightAware Transoceanic
Tue 12:32:00 AM 24.4703 -144.8531 246° West 468 539 36,000  Level FlightAware Transoceanic
Tue 12:33:00 AM 24.4167 -144.9833 246° West 468 539 36,000  Level FlightAware Transoceanic
Tue 12:34:00 AM 24.3597 -145.1212 246° West 468 539 36,000  Level FlightAware Transoceanic
Tue 12:34:37 AM 24.4167 -144.9833 246° West 496 571 36,000  Level Oakland Oceanic (ODAPS)
Tue 12:35:00 AM 24.3026 -145.2590 246° West 468 539 36,000  Level FlightAware Transoceanic
Tue 12:36:00 AM 24.2454 -145.3967 245° Southwest 468 539 36,000  Level FlightAware Transoceanic
Tue 12:37:00 AM 24.1881 -145.5343 245° Southwest 468 539 36,000  Level FlightAware Transoceanic
Tue 12:38:00 AM 24.1307 -145.6717 245° Southwest 468 539 36,000  Level FlightAware Transoceanic
Tue 12:39:00 AM 24.0731 -145.8090 245° Southwest 468 539 36,000  Level FlightAware Transoceanic
Tue 12:40:00 AM 24.0154 -145.9462 245° Southwest 468 539 36,000  Level FlightAware Transoceanic
Tue 12:41:00 AM 23.8997 -146.2201 245° Southwest 496 571 36,000  Level FlightAware Transoceanic
Tue 12:42:00 AM 23.8416 -146.3569 245° Southwest 496 571 36,000  Level FlightAware Transoceanic
Tue 12:43:00 AM 23.7834 -146.4936 245° Southwest 496 571 36,000  Level FlightAware Transoceanic
Tue 12:44:00 AM 23.7251 -146.6302 245° Southwest 496 571 36,000  Level FlightAware Transoceanic
Tue 12:45:00 AM 23.6667 -146.7666 245° Southwest 496 571 36,000  Level FlightAware Transoceanic
Tue 12:46:00 AM 23.6082 -146.9029 245° Southwest 496 571 36,000  Level FlightAware Transoceanic
Tue 12:47:00 AM 23.5495 -147.0391 245° Southwest 496 571 36,000  Level FlightAware Transoceanic
Tue 12:48:00 AM 23.4907 -147.1752 245° Southwest 496 571 36,000  Level FlightAware Transoceanic
Tue 12:49:00 AM 23.4319 -147.3112 245° Southwest 496 571 36,000  Level FlightAware Transoceanic
Tue 12:50:00 AM 23.3728 -147.4470 245° Southwest 496 571 36,000  Level FlightAware Transoceanic
Tue 12:51:00 AM 23.3137 -147.5827 245° Southwest 496 571 36,000  Level FlightAware Transoceanic
Tue 12:52:00 AM 23.2545 -147.7183 245° Southwest 496 571 36,000  Level FlightAware Transoceanic
Tue 12:53:00 AM 23.1951 -147.8538 244° Southwest 496 571 36,000  Level FlightAware Transoceanic
Tue 12:54:00 AM 23.1356 -147.9891 244° Southwest 496 571 36,000  Level FlightAware Transoceanic
Tue 12:55:00 AM 23.0760 -148.1243 244° Southwest 496 571 36,000  Level FlightAware Transoceanic
Tue 12:56:00 AM 23.0163 -148.2594 244° Southwest 496 571 36,000  Level FlightAware Transoceanic
Tue 12:57:00 AM 22.9565 -148.3944 244° Southwest 496 571 36,000  Level FlightAware Transoceanic
Tue 12:58:00 AM 22.8966 -148.5293 244° Southwest 496 571 36,000  Level FlightAware Transoceanic
Tue 12:59:00 AM 22.8365 -148.6640 244° Southwest 496 571 36,000  Level FlightAware Transoceanic
Tue 01:00:00 AM 22.7764 -148.7987 244° Southwest 496 571 36,000  Level FlightAware Transoceanic
Tue 01:01:00 AM 22.7161 -148.9332 244° Southwest 496 571 36,000  Level FlightAware Transoceanic
Tue 01:02:00 AM 22.6557 -149.0676 244° Southwest 496 571 36,000  Level FlightAware Transoceanic
Tue 01:03:00 AM 22.5952 -149.2019 244° Southwest 496 571 36,000  Level FlightAware Transoceanic
Tue 01:04:00 AM 22.5346 -149.3360 244° Southwest 496 571 36,000  Level FlightAware Transoceanic
Tue 01:05:00 AM 22.4739 -149.4700 244° Southwest 496 571 36,000  Level FlightAware Transoceanic
Tue 01:06:00 AM 22.4130 -149.6040 244° Southwest 496 571 36,000  Level FlightAware Transoceanic
Tue 01:07:00 AM 22.3521 -149.7378 244° Southwest 496 571 36,000  Level FlightAware Transoceanic
Tue 01:08:00 AM 22.2910 -149.8715 244° Southwest 496 571 36,000  Level FlightAware Transoceanic
Tue 01:09:00 AM 22.2299 -150.0050 244° Southwest 496 571 36,000  Level FlightAware Transoceanic
Tue 01:10:00 AM 22.1686 -150.1385 244° Southwest 496 571 36,000  Level FlightAware Transoceanic
Tue 01:11:00 AM 22.1072 -150.2718 244° Southwest 496 571 36,000  Level FlightAware Transoceanic
Tue 01:12:00 AM 22.0457 -150.4050 243° Southwest 496 571 36,000  Level FlightAware Transoceanic
Tue 01:13:00 AM 21.9841 -150.5381 243° Southwest 496 571 36,000  Level FlightAware Transoceanic
Tue 01:14:00 AM 21.9224 -150.6711 243° Southwest 496 571 36,000  Level FlightAware Transoceanic
Tue 01:15:00 AM 21.8606 -150.8040 243° Southwest 496 571 36,000  Level FlightAware Transoceanic
Tue 01:16:00 AM 21.7987 -150.9368 243° Southwest 496 571 36,000  Level FlightAware Transoceanic
Tue 01:17:00 AM 21.7367 -151.0694 243° Southwest 496 571 36,000  Level FlightAware Transoceanic
Tue 01:18:00 AM 21.6746 -151.2020 243° Southwest 496 571 36,000  Level FlightAware Transoceanic
Tue 01:19:00 AM 21.6123 -151.3344 243° Southwest 496 571 36,000  Level FlightAware Transoceanic
Tue 01:19:33 AM 21.5833 -151.4000 242° Southwest 500 575 36,000  Level Honolulu Center
Tue 01:20:00 AM 21.5500 -151.4667 243° Southwest 496 571 36,000  Level FlightAware Transoceanic
Tue 01:21:00 AM 21.4880 -151.5950 243° Southwest 496 571 36,000  Level FlightAware Transoceanic
Tue 01:21:34 AM 21.4500 -151.6667 242° Southwest 490 564 36,000  Level Honolulu Center
Tue 01:22:00 AM 21.4260 -151.7233 243° Southwest 496 571 36,000  Level FlightAware Transoceanic
Tue 01:22:34 AM 21.3833 -151.7833 238° Southwest 490 564 36,000  Level Honolulu Center
Tue 01:23:00 AM 21.3638 -151.8515 242° Southwest 496 571 36,000  Level FlightAware Transoceanic
Tue 01:23:35 AM 21.3167 -151.9167 242° Southwest 500 575 36,000  Level Honolulu Center
Tue 01:24:00 AM 21.3015 -151.9795 242° Southwest 496 571 36,000  Level FlightAware Transoceanic
Tue 01:24:35 AM 21.2500 -152.0500 242° Southwest 490 564 36,000  Level Honolulu Center
Tue 01:25:35 AM 21.1833 -152.1500 234° Southwest 490 564 36,000  Level Honolulu Center
Tue 01:26:36 AM 21.1167 -152.3000 245° Southwest 490 564 36,000  Level Honolulu Center
Tue 01:27:36 AM 21.0500 -152.4333 242° Southwest 490 564 36,000  Level Honolulu Center
Tue 01:28:36 AM 20.9833 -152.5500 239° Southwest 490 564 36,000  Level Honolulu Center
Tue 01:29:37 AM 20.9167 -152.6833 242° Southwest 490 564 36,000  Level Honolulu Center
Tue 01:30:37 AM 20.8500 -152.8167 242° Southwest 490 564 36,000  Level Honolulu Center
Tue 01:31:37 AM 20.7833 -152.9333 239° Southwest 490 564 36,000 -149 Level Honolulu Center
Tue 01:32:38 AM 20.7000 -153.0667 236° Southwest 490 564 35,700 -1,785 Descending Honolulu Center
Tue 01:33:38 AM 20.6333 -153.2000 242° Southwest 490 564 32,400 -3,350 Descending Honolulu Center
Tue 01:34:38 AM 20.5667 -153.3167 239° Southwest 510 587 29,000 -3,421 Descending Honolulu Center
Tue 01:35:39 AM 20.5000 -153.4500 242° Southwest 500 575 25,500 -2,926 Descending Honolulu Center
Tue 01:36:39 AM 20.4333 -153.5833 242° Southwest 480 552 23,100 -2,579 Descending Honolulu Center
Tue 01:37:40 AM 20.3667 -153.7000 239° Southwest 460 529 20,300 -2,678 Descending Honolulu Center
Tue 01:38:40 AM 20.3167 -153.8167 245° Southwest 450 518 17,700 -2,450 Descending Honolulu Center
Tue 01:39:40 AM 20.2500 -153.9333 239° Southwest 430 495 15,400 -2,430 Descending Honolulu Center
Tue 01:40:41 AM 20.2000 -154.0333 242° Southwest 410 472 12,800 -2,529 Descending Honolulu Center
Tue 01:41:41 AM 20.1333 -154.1333 235° Southwest 390 449 10,300 -1,500 Descending Honolulu Center
Tue 01:42:41 AM 20.0833 -154.2167 237° Southwest 340 391 9,800 -645 Descending Honolulu Center
Tue 01:43:42 AM 20.0500 -154.3000 247° West 300 345 9,000 -1,041 Descending Honolulu Center
Tue 01:44:42 AM 20.0000 -154.3833 237° Southwest 300 345 7,700 -1,400 Descending Honolulu Center
Tue 01:45:42 AM 19.9500 -154.4667 237° Southwest 290 334 6,200 -1,289 Descending Honolulu Center
Tue 01:46:43 AM 19.9167 -154.5333 242° Southwest 290 334 5,100 -1,041 Descending Honolulu Center
Tue 01:47:43 AM 19.8833 -154.6167 247° West 280 322 4,100 -992 Descending Honolulu Center
Tue 01:48:44 AM 19.8333 -154.6833 231° Southwest 280 322 3,100 -992 Descending Honolulu Center
Tue 01:49:44 AM 19.8000 -154.7500 242° Southwest 280 322 2,100 -650 Descending Honolulu Center
Tue 01:50:44 AM 19.7667 -154.8167 242° Southwest 270 311 1,800 -149 Descending Honolulu Center
Tue 01:51:45 AM 19.7333 -154.8833 242° Southwest 220 253 1,800 -198 Level Honolulu Center
Tue 01:52:45 AM 19.7167 -154.9333 251° West 200 230 1,400 -600 Descending Honolulu Center
Tue 01:53:45 AM 19.7167 -154.9833 270° West 150 173 600 -800 Descending Honolulu Center

Login

Don't have an account? Register now (free) for customized features, flight alerts, and more!